createdAt,value
2023-04-18T00:00:04.849Z,34.21
2023-04-18T00:00:34.852Z,34.26
2023-04-18T00:01:04.849Z,34.28
2023-04-18T00:01:34.854Z,34.21
2023-04-18T00:02:04.892Z,34.28
2023-04-18T00:02:34.973Z,34.21
2023-04-18T00:03:05.162Z,34.25
2023-04-18T00:03:35.102Z,34.23
2023-04-18T00:04:05.455Z,34.23
2023-04-18T00:04:35.252Z,34.26
2023-04-18T00:05:05.208Z,34.32
2023-04-18T00:05:35.200Z,34.20
2023-04-18T00:06:05.218Z,34.22
2023-04-18T00:06:35.224Z,34.25
2023-04-18T00:07:05.229Z,34.20
2023-04-18T00:08:05.340Z,34.21
2023-04-18T00:08:35.343Z,34.23
2023-04-18T00:09:05.431Z,34.21
2023-04-18T00:09:35.509Z,34.21
2023-04-18T00:10:05.501Z,34.22
2023-04-18T00:10:35.615Z,34.22
2023-04-18T00:11:05.697Z,34.29
2023-04-18T00:11:35.775Z,34.24
2023-04-18T00:12:05.873Z,34.15
2023-04-18T00:12:35.952Z,34.25
2023-04-18T00:13:06.077Z,34.15
2023-04-18T00:13:36.142Z,34.18
2023-04-18T00:14:06.234Z,34.16
2023-04-18T00:14:36.331Z,34.16
2023-04-18T00:15:06.410Z,34.16
2023-04-18T00:15:36.496Z,34.11
2023-04-18T00:16:06.579Z,34.16
2023-04-18T00:16:36.715Z,34.20
2023-04-18T00:17:06.891Z,34.12
2023-04-18T00:17:36.860Z,34.13
2023-04-18T00:18:06.986Z,34.05
2023-04-18T00:18:37.145Z,34.08
2023-04-18T00:19:07.165Z,34.05
2023-04-18T00:19:37.243Z,34.07
2023-04-18T00:20:07.345Z,34.04
2023-04-18T00:20:37.342Z,33.98
2023-04-18T00:21:07.358Z,33.98
2023-04-18T00:21:37.369Z,33.95
2023-04-18T00:22:07.368Z,34.05
2023-04-18T00:22:37.370Z,33.95
2023-04-18T00:23:07.408Z,34.01
2023-04-18T00:23:37.405Z,33.92
2023-04-18T00:24:07.415Z,33.97
2023-04-18T00:24:37.428Z,33.93
2023-04-18T00:25:07.432Z,34.01
2023-04-18T00:25:37.439Z,33.92
2023-04-18T00:26:07.454Z,33.86
2023-04-18T00:26:37.458Z,33.94
2023-04-18T00:27:07.463Z,33.92
2023-04-18T00:27:37.472Z,33.92
2023-04-18T00:28:07.510Z,33.92
2023-04-18T00:28:37.481Z,33.82
2023-04-18T00:29:37.579Z,33.92
2023-04-18T00:30:07.595Z,33.92
2023-04-18T00:30:37.731Z,33.94
2023-04-18T00:31:07.701Z,33.90
2023-04-18T00:31:37.712Z,33.90
2023-04-18T00:32:07.720Z,33.89
2023-04-18T00:32:37.783Z,33.86
2023-04-18T00:33:07.740Z,33.93
2023-04-18T00:33:37.764Z,33.97
2023-04-18T00:34:07.770Z,33.86
2023-04-18T00:34:37.777Z,33.86
2023-04-18T00:35:07.857Z,33.88
2023-04-18T00:35:37.883Z,33.96
2023-04-18T00:36:07.874Z,34.00
2023-04-18T00:36:37.881Z,33.97
2023-04-18T00:37:07.903Z,34.06
2023-04-18T00:37:37.903Z,34.05
2023-04-18T00:38:07.902Z,34.04
2023-04-18T00:38:37.907Z,34.01
2023-04-18T00:39:07.922Z,34.00
2023-04-18T00:39:37.925Z,34.01
2023-04-18T00:40:07.924Z,34.00
2023-04-18T00:40:37.937Z,34.04
2023-04-18T00:41:07.936Z,33.96
2023-04-18T00:42:08.034Z,34.06
2023-04-18T00:42:38.047Z,34.01
2023-04-18T00:43:08.071Z,33.96
2023-04-18T00:43:38.098Z,33.91
2023-04-18T00:44:38.268Z,33.99
2023-04-18T00:45:08.270Z,33.96
2023-04-18T00:45:38.291Z,33.85
2023-04-18T00:46:08.333Z,33.94
2023-04-18T00:46:38.400Z,33.97
2023-04-18T00:47:08.424Z,33.88
2023-04-18T00:47:38.469Z,33.94
2023-04-18T00:48:08.607Z,33.89
2023-04-18T00:48:38.517Z,33.93
2023-04-18T00:49:08.512Z,33.95
2023-04-18T00:49:38.553Z,33.89
2023-04-18T00:50:08.530Z,34.01
2023-04-18T00:51:08.615Z,33.96
2023-04-18T00:51:38.629Z,33.89
2023-04-18T00:52:08.642Z,33.97
2023-04-18T00:52:38.657Z,33.97
2023-04-18T00:53:08.692Z,33.97
2023-04-18T00:53:38.696Z,33.94
2023-04-18T00:54:08.705Z,34.04
2023-04-18T00:54:38.719Z,34.01
2023-04-18T00:55:08.718Z,34.00
2023-04-18T00:55:38.726Z,33.95
2023-04-18T00:56:08.733Z,34.01
2023-04-18T00:56:38.752Z,34.03
2023-04-18T00:57:08.750Z,34.02
2023-04-18T00:57:38.761Z,34.09
2023-04-18T00:58:08.776Z,34.01
2023-04-18T00:58:38.789Z,34.02
2023-04-18T00:59:08.846Z,34.02
2023-04-18T00:59:38.836Z,34.01
2023-04-18T01:00:38.936Z,34.05
2023-04-18T01:01:08.985Z,34.08
2023-04-18T01:01:39.135Z,34.00
2023-04-18T01:02:09.125Z,34.09
2023-04-18T01:02:39.279Z,34.05
2023-04-18T01:03:09.311Z,34.03
2023-04-18T01:03:39.532Z,34.03
2023-04-18T01:04:09.447Z,33.98
2023-04-18T01:04:39.430Z,34.08
2023-04-18T01:05:09.458Z,34.05
2023-04-18T01:05:39.493Z,34.05
2023-04-18T01:06:09.471Z,34.06
2023-04-18T01:06:39.489Z,34.10
2023-04-18T01:07:09.487Z,34.06
2023-04-18T01:07:39.491Z,34.08
2023-04-18T01:08:09.508Z,34.10
2023-04-18T01:08:39.518Z,34.08
2023-04-18T01:09:09.532Z,34.06
2023-04-18T01:09:39.542Z,34.00
2023-04-18T01:10:09.660Z,34.06
2023-04-18T01:10:39.742Z,34.07
2023-04-18T01:11:09.832Z,34.13
2023-04-18T01:11:39.920Z,34.10
2023-04-18T01:12:09.996Z,34.07
2023-04-18T01:12:40.078Z,34.10
2023-04-18T01:13:10.190Z,34.11
2023-04-18T01:13:40.164Z,34.06
2023-04-18T01:14:10.251Z,34.10
2023-04-18T01:14:40.350Z,34.10
2023-04-18T01:15:10.414Z,34.06
2023-04-18T01:15:40.519Z,34.07
2023-04-18T01:16:10.612Z,33.99
2023-04-18T01:16:40.595Z,34.10
2023-04-18T01:17:10.693Z,34.03
2023-04-18T01:17:40.809Z,33.99
2023-04-18T01:18:10.800Z,33.98
2023-04-18T01:18:40.865Z,34.02
2023-04-18T01:19:10.945Z,34.06
2023-04-18T01:19:41.028Z,34.05
2023-04-18T01:20:11.125Z,34.03
2023-04-18T01:20:41.129Z,33.99
2023-04-18T01:21:11.136Z,33.90
2023-04-18T01:21:41.143Z,33.90
2023-04-18T01:22:11.148Z,33.90
2023-04-18T01:22:41.162Z,33.92
2023-04-18T01:23:11.206Z,33.97
2023-04-18T01:23:41.195Z,33.89
2023-04-18T01:24:11.709Z,33.86
2023-04-18T01:24:41.251Z,33.95
2023-04-18T01:25:11.270Z,33.85
2023-04-18T01:25:41.262Z,33.75
2023-04-18T01:26:11.271Z,33.88
2023-04-18T01:26:41.294Z,33.83
2023-04-18T01:27:11.274Z,33.74
2023-04-18T01:27:41.292Z,33.82
2023-04-18T01:28:11.310Z,33.77
2023-04-18T01:28:41.324Z,33.80
2023-04-18T01:29:11.332Z,33.76
2023-04-18T01:29:41.346Z,33.83
2023-04-18T01:30:11.584Z,33.74
2023-04-18T01:30:41.541Z,33.76
2023-04-18T01:31:41.650Z,33.72
2023-04-18T01:32:11.661Z,33.77
2023-04-18T01:32:41.700Z,33.74
2023-04-18T01:33:11.742Z,33.74
2023-04-18T01:33:41.731Z,33.72
2023-04-18T01:34:12.020Z,33.70
2023-04-18T01:34:41.832Z,33.68
2023-04-18T01:35:11.844Z,33.73
2023-04-18T01:35:41.857Z,33.73
2023-04-18T01:36:11.850Z,33.71
2023-04-18T01:36:41.861Z,33.66
2023-04-18T01:37:11.876Z,33.68
2023-04-18T01:37:41.953Z,33.62
2023-04-18T01:38:12.303Z,33.66
2023-04-18T01:38:41.967Z,33.77
2023-04-18T01:39:42.063Z,33.72
2023-04-18T01:40:12.082Z,33.84
2023-04-18T01:40:42.089Z,33.74
2023-04-18T01:41:12.093Z,33.76
2023-04-18T01:41:42.108Z,33.77
2023-04-18T01:42:12.124Z,33.83
2023-04-18T01:42:42.128Z,33.81
2023-04-18T01:43:12.164Z,33.72
2023-04-18T01:43:42.176Z,33.82
2023-04-18T01:44:12.487Z,33.79
2023-04-18T01:44:42.201Z,33.73
2023-04-18T01:45:12.228Z,33.75
2023-04-18T01:45:42.253Z,33.72
2023-04-18T01:46:12.263Z,33.75
2023-04-18T01:46:42.312Z,33.79
2023-04-18T01:47:12.330Z,33.79
2023-04-18T01:47:42.409Z,33.81
2023-04-18T01:48:12.436Z,33.79
2023-04-18T01:48:42.438Z,33.70
2023-04-18T01:49:12.436Z,33.85
2023-04-18T01:49:42.452Z,33.83
2023-04-18T01:50:12.460Z,33.79
2023-04-18T01:50:42.464Z,33.88
2023-04-18T01:51:12.471Z,33.80
2023-04-18T01:51:42.485Z,33.88
2023-04-18T01:52:12.497Z,33.86
2023-04-18T01:52:42.500Z,33.82
2023-04-18T01:53:12.532Z,33.82
2023-04-18T01:53:42.532Z,33.85
2023-04-18T01:54:12.887Z,33.82
2023-04-18T01:54:42.561Z,33.83
2023-04-18T01:55:12.573Z,33.83
2023-04-18T01:55:42.568Z,33.72
2023-04-18T01:56:12.572Z,33.83
2023-04-18T01:56:42.580Z,33.78
2023-04-18T01:57:12.595Z,33.72
2023-04-18T01:57:42.618Z,33.76
2023-04-18T01:58:12.642Z,33.76
2023-04-18T01:58:42.645Z,33.88
2023-04-18T01:59:12.652Z,33.80
2023-04-18T01:59:42.669Z,33.86
2023-04-18T02:00:12.681Z,33.84
2023-04-18T02:00:42.802Z,33.85
2023-04-18T02:01:12.758Z,33.88
2023-04-18T02:01:42.868Z,33.87
2023-04-18T02:02:12.929Z,33.86
2023-04-18T02:02:43.129Z,33.89
2023-04-18T02:03:13.178Z,33.86
2023-04-18T02:03:43.531Z,33.86
2023-04-18T02:04:13.548Z,33.95
2023-04-18T02:04:43.164Z,33.95
2023-04-18T02:05:13.179Z,33.93
2023-04-18T02:05:43.167Z,33.98
2023-04-18T02:06:13.166Z,33.86
2023-04-18T02:06:43.192Z,33.90
2023-04-18T02:07:13.197Z,33.87
2023-04-18T02:07:43.234Z,33.92
2023-04-18T02:08:13.227Z,33.93
2023-04-18T02:08:43.222Z,33.97
2023-04-18T02:09:13.243Z,33.95
2023-04-18T02:09:43.239Z,33.92
2023-04-18T02:10:13.353Z,33.94
2023-04-18T02:10:43.434Z,33.95
2023-04-18T02:11:13.541Z,33.92
2023-04-18T02:11:43.609Z,33.98
2023-04-18T02:12:13.692Z,33.89
2023-04-18T02:12:43.772Z,33.90
2023-04-18T02:13:13.998Z,33.94
2023-04-18T02:13:43.959Z,33.90
2023-04-18T02:14:14.074Z,33.93
2023-04-18T02:14:44.021Z,33.87
2023-04-18T02:15:14.117Z,33.93
2023-04-18T02:15:44.184Z,33.89
2023-04-18T02:16:14.371Z,33.92
2023-04-18T02:16:44.420Z,33.89
2023-04-18T02:17:14.393Z,33.94
2023-04-18T02:17:44.522Z,33.93
2023-04-18T02:18:14.495Z,33.92
2023-04-18T02:18:44.584Z,33.98
2023-04-18T02:19:14.676Z,33.90
2023-04-18T02:19:44.758Z,33.90
2023-04-18T02:20:14.851Z,33.86
2023-04-18T02:20:44.867Z,33.95
2023-04-18T02:21:14.869Z,33.87
2023-04-18T02:21:44.881Z,33.92
2023-04-18T02:22:14.879Z,33.87
2023-04-18T02:22:44.892Z,33.81
2023-04-18T02:23:14.930Z,33.83
2023-04-18T02:23:44.923Z,33.87
2023-04-18T02:24:15.226Z,33.93
2023-04-18T02:24:44.994Z,33.97
2023-04-18T02:25:14.996Z,33.84
2023-04-18T02:25:45.001Z,33.86
2023-04-18T02:26:15.012Z,33.90
2023-04-18T02:26:45.010Z,33.94
2023-04-18T02:27:15.025Z,33.90
2023-04-18T02:27:45.016Z,33.90
2023-04-18T02:28:15.049Z,33.92
2023-04-18T02:28:45.084Z,33.86
2023-04-18T02:29:15.082Z,33.86
2023-04-18T02:29:45.085Z,33.84
2023-04-18T02:30:15.090Z,33.86
2023-04-18T02:30:45.111Z,33.74
2023-04-18T02:31:15.162Z,33.77
2023-04-18T02:31:45.283Z,33.76
2023-04-18T02:32:15.227Z,33.68
2023-04-18T02:32:45.230Z,33.80
2023-04-18T02:33:15.243Z,33.73
2023-04-18T02:33:45.250Z,33.72
2023-04-18T02:34:15.390Z,33.73
2023-04-18T02:34:45.352Z,33.73
2023-04-18T02:35:15.361Z,33.73
2023-04-18T02:35:45.364Z,33.65
2023-04-18T02:36:15.377Z,33.64
2023-04-18T02:36:45.376Z,33.65
2023-04-18T02:37:15.386Z,33.61
2023-04-18T02:37:45.382Z,33.62
2023-04-18T02:38:15.423Z,33.61
2023-04-18T02:38:45.431Z,33.62
2023-04-18T02:39:15.432Z,33.62
2023-04-18T02:39:45.447Z,33.62
2023-04-18T02:40:15.463Z,33.70
2023-04-18T02:40:45.466Z,33.62
2023-04-18T02:41:15.480Z,33.59
2023-04-18T02:41:45.481Z,33.63
2023-04-18T02:42:15.505Z,33.57
2023-04-18T02:42:45.512Z,33.59
2023-04-18T02:43:15.524Z,33.55
2023-04-18T02:43:45.543Z,33.56
2023-04-18T02:44:15.620Z,33.62
2023-04-18T02:44:45.555Z,33.63
2023-04-18T02:45:15.566Z,33.65
2023-04-18T02:45:45.619Z,33.68
2023-04-18T02:46:15.648Z,33.59
2023-04-18T02:46:45.668Z,33.68
2023-04-18T02:47:15.672Z,33.67
2023-04-18T02:47:54.426Z,33.64
2023-04-18T02:48:15.850Z,33.64
2023-04-18T02:48:45.847Z,33.63
2023-04-18T02:49:15.856Z,33.68
2023-04-18T02:49:45.896Z,33.63
2023-04-18T02:50:15.895Z,33.65
2023-04-18T02:50:45.915Z,33.57
2023-04-18T02:51:15.902Z,33.67
2023-04-18T02:51:45.928Z,33.65
2023-04-18T02:52:15.925Z,33.65
2023-04-18T02:52:45.943Z,33.63
2023-04-18T02:53:15.989Z,33.59
2023-04-18T02:53:45.996Z,33.59
2023-04-18T02:54:16.209Z,33.57
2023-04-18T02:54:46.107Z,33.62
2023-04-18T02:55:16.146Z,33.62
2023-04-18T02:55:46.155Z,33.63
2023-04-18T02:56:16.164Z,33.66
2023-04-18T02:56:46.163Z,33.68
2023-04-18T02:57:16.180Z,33.67
2023-04-18T02:57:46.189Z,33.69
2023-04-18T02:58:16.219Z,33.71
2023-04-18T02:58:46.215Z,33.72
2023-04-18T02:59:16.219Z,33.67
2023-04-18T03:00:16.309Z,33.61
2023-04-18T03:00:46.320Z,33.72
2023-04-18T03:01:16.377Z,33.73
2023-04-18T03:01:46.488Z,33.76
2023-04-18T03:02:16.525Z,33.77
2023-04-18T03:02:46.646Z,33.73
2023-04-18T03:03:16.703Z,33.76
2023-04-18T03:03:46.616Z,33.79
2023-04-18T03:04:16.818Z,33.76
2023-04-18T03:04:46.683Z,33.75
2023-04-18T03:05:16.724Z,33.68
2023-04-18T03:05:46.707Z,33.82
2023-04-18T03:06:16.711Z,33.70
2023-04-18T03:06:46.718Z,33.67
2023-04-18T03:07:16.726Z,33.73
2023-04-18T03:07:46.731Z,33.76
2023-04-18T03:08:16.751Z,33.79
2023-04-18T03:08:46.757Z,33.78
2023-04-18T03:09:16.758Z,33.80
2023-04-18T03:09:46.758Z,33.74
2023-04-18T03:10:16.876Z,33.77
2023-04-18T03:10:46.946Z,33.71
2023-04-18T03:11:17.022Z,33.74
2023-04-18T03:11:47.100Z,33.74
2023-04-18T03:12:17.185Z,33.72
2023-04-18T03:12:47.283Z,33.77
2023-04-18T03:13:17.367Z,33.72
2023-04-18T03:13:47.445Z,33.77
2023-04-18T03:14:17.536Z,33.80
2023-04-18T03:14:47.618Z,33.72
2023-04-18T03:15:17.711Z,33.65
2023-04-18T03:15:47.845Z,33.74
2023-04-18T03:16:17.830Z,33.77
2023-04-18T03:16:47.923Z,33.74
2023-04-18T03:17:18.002Z,33.70
2023-04-18T03:17:48.116Z,33.68
2023-04-18T03:18:18.130Z,33.78
2023-04-18T03:18:48.243Z,33.70
2023-04-18T03:19:18.296Z,33.73
2023-04-18T03:19:48.372Z,33.71
2023-04-18T03:20:18.482Z,33.78
2023-04-18T03:20:48.491Z,33.71
2023-04-18T03:21:18.506Z,33.71
2023-04-18T03:21:48.502Z,33.78
2023-04-18T03:22:48.607Z,33.77
2023-04-18T03:23:18.614Z,33.76
2023-04-18T03:23:48.629Z,33.74
2023-04-18T03:24:18.644Z,33.72
2023-04-18T03:24:48.634Z,33.78
2023-04-18T03:25:18.639Z,33.76
2023-04-18T03:25:48.643Z,33.69
2023-04-18T03:26:18.657Z,33.70
2023-04-18T03:26:48.654Z,33.74
2023-04-18T03:27:18.660Z,33.64
2023-04-18T03:27:48.679Z,33.65
2023-04-18T03:28:18.694Z,33.60
2023-04-18T03:28:48.700Z,33.68
2023-04-18T03:29:18.712Z,33.66
2023-04-18T03:29:48.713Z,33.71
2023-04-18T03:30:18.723Z,33.65
2023-04-18T03:30:48.724Z,33.74
2023-04-18T03:31:18.776Z,33.65
2023-04-18T03:31:48.768Z,33.68
2023-04-18T03:32:18.799Z,33.65
2023-04-18T03:32:48.876Z,33.66
2023-04-18T03:33:18.826Z,33.68
2023-04-18T03:33:48.837Z,33.72
2023-04-18T03:34:18.852Z,33.66
2023-04-18T03:34:48.838Z,33.69
2023-04-18T03:35:48.913Z,33.65
2023-04-18T03:36:18.926Z,33.68
2023-04-18T03:36:48.926Z,33.66
2023-04-18T03:37:18.935Z,33.66
2023-04-18T03:37:48.939Z,33.67
2023-04-18T03:38:18.958Z,33.59
2023-04-18T03:38:48.956Z,33.60
2023-04-18T03:39:18.970Z,33.60
2023-04-18T03:39:48.956Z,33.60
2023-04-18T03:40:49.055Z,33.67
2023-04-18T03:41:19.050Z,33.70
2023-04-18T03:41:49.061Z,33.70
2023-04-18T03:42:19.079Z,33.72
2023-04-18T03:42:49.087Z,33.70
2023-04-18T03:43:19.097Z,33.67
2023-04-18T03:43:49.096Z,33.73
2023-04-18T03:44:19.130Z,33.72
2023-04-18T03:44:49.103Z,33.70
2023-04-18T03:45:19.121Z,33.67
2023-04-18T03:45:49.192Z,33.73
2023-04-18T03:46:19.234Z,33.71
2023-04-18T03:46:49.241Z,33.76
2023-04-18T03:47:19.305Z,33.74
2023-04-18T03:47:49.356Z,33.82
2023-04-18T03:48:19.338Z,33.73
2023-04-18T03:48:49.352Z,33.77
2023-04-18T03:49:19.370Z,33.75
2023-04-18T03:49:49.385Z,33.70
2023-04-18T03:50:19.388Z,33.76
2023-04-18T03:51:19.453Z,33.76
2023-04-18T03:51:49.473Z,33.77
2023-04-18T03:52:19.466Z,33.73
2023-04-18T03:52:49.481Z,33.76
2023-04-18T03:53:19.496Z,33.70
2023-04-18T03:53:49.488Z,33.74
2023-04-18T03:54:19.513Z,33.70
2023-04-18T03:54:49.515Z,33.73
2023-04-18T03:55:19.511Z,33.70
2023-04-18T03:55:49.509Z,33.71
2023-04-18T03:56:19.518Z,33.68
2023-04-18T03:56:49.526Z,33.68
2023-04-18T03:57:19.522Z,33.71
2023-04-18T03:57:49.539Z,33.71
2023-04-18T03:58:19.536Z,33.69
2023-04-18T03:59:19.613Z,33.76
2023-04-18T03:59:49.623Z,33.71
2023-04-18T04:00:19.626Z,33.69
2023-04-18T04:00:49.624Z,33.72
2023-04-18T04:01:19.644Z,33.69
2023-04-18T04:01:49.663Z,33.69
2023-04-18T04:02:19.822Z,33.68
2023-04-18T04:02:49.899Z,33.69
2023-04-18T04:03:19.978Z,33.60
2023-04-18T04:03:50.005Z,33.66
2023-04-18T04:04:19.904Z,33.71
2023-04-18T04:04:49.867Z,33.69
2023-04-18T04:05:19.922Z,33.71
2023-04-18T04:05:49.900Z,33.69
2023-04-18T04:06:49.995Z,33.72
2023-04-18T04:07:19.994Z,33.71
2023-04-18T04:07:50.012Z,33.73
2023-04-18T04:08:20.013Z,33.87
2023-04-18T04:08:50.010Z,33.91
2023-04-18T04:09:20.037Z,33.85
2023-04-18T04:09:50.040Z,33.79
2023-04-18T04:10:20.137Z,33.71
2023-04-18T04:10:50.217Z,33.65
2023-04-18T04:11:20.309Z,33.57
2023-04-18T04:11:50.400Z,33.56
2023-04-18T04:12:20.481Z,33.53
2023-04-18T04:12:50.572Z,33.50
2023-04-18T04:13:20.659Z,33.41
2023-04-18T04:13:50.732Z,33.16
2023-04-18T04:14:20.818Z,33.08
2023-04-18T04:14:50.895Z,33.17
2023-04-18T04:15:20.977Z,33.11
2023-04-18T04:15:51.048Z,33.29
2023-04-18T04:16:21.198Z,33.38
2023-04-18T04:16:51.177Z,33.52
2023-04-18T04:17:21.231Z,33.69
2023-04-18T04:17:51.378Z,33.77
2023-04-18T04:18:21.333Z,33.90
2023-04-18T04:18:51.415Z,33.98
2023-04-18T04:19:21.495Z,34.12
2023-04-18T04:19:51.576Z,34.22
2023-04-18T04:20:21.602Z,34.27
2023-04-18T04:20:51.651Z,34.29
2023-04-18T04:21:21.647Z,34.41
2023-04-18T04:22:21.737Z,34.61
2023-04-18T04:22:51.749Z,34.66
2023-04-18T04:23:21.749Z,34.72
2023-04-18T04:23:51.764Z,34.80
2023-04-18T04:24:21.765Z,34.86
2023-04-18T04:24:51.766Z,34.99
2023-04-18T04:25:21.772Z,34.94
2023-04-18T04:25:51.780Z,35.00
2023-04-18T04:26:21.780Z,35.09
2023-04-18T04:26:51.797Z,35.14
2023-04-18T04:27:21.816Z,35.14
2023-04-18T04:27:51.812Z,35.14
2023-04-18T04:28:21.817Z,35.17
2023-04-18T04:28:51.817Z,35.22
2023-04-18T04:29:21.833Z,35.34
2023-04-18T04:29:51.832Z,35.28
2023-04-18T04:30:21.832Z,35.33
2023-04-18T04:30:51.837Z,35.34
2023-04-18T04:31:21.936Z,35.37
2023-04-18T04:31:52.001Z,35.38
2023-04-18T04:32:22.133Z,35.45
2023-04-18T04:32:52.174Z,35.38
2023-04-18T04:33:22.150Z,35.39
2023-04-18T04:33:52.149Z,35.46
2023-04-18T04:34:22.155Z,35.46
2023-04-18T04:34:52.193Z,35.44
2023-04-18T04:35:22.179Z,35.51
2023-04-18T04:35:52.181Z,35.51
2023-04-18T04:36:22.210Z,35.57
2023-04-18T04:36:52.190Z,35.66
2023-04-18T04:37:22.217Z,35.60
2023-04-18T04:37:52.220Z,35.51
2023-04-18T04:38:52.322Z,35.56
2023-04-18T04:39:22.316Z,35.64
2023-04-18T04:39:52.355Z,36.01
2023-04-18T04:40:22.383Z,36.03
2023-04-18T04:40:52.387Z,35.97
2023-04-18T04:41:22.415Z,36.04
2023-04-18T04:41:52.400Z,35.91
2023-04-18T04:42:22.428Z,35.89
2023-04-18T04:42:52.445Z,35.98
2023-04-18T04:43:22.443Z,36.01
2023-04-18T04:43:52.469Z,36.05
2023-04-18T04:44:22.495Z,36.14
2023-04-18T04:44:52.511Z,36.18
2023-04-18T04:45:22.540Z,36.20
2023-04-18T04:45:52.621Z,36.11
2023-04-18T04:46:22.671Z,36.11
2023-04-18T04:46:52.639Z,35.99
2023-04-18T04:47:22.708Z,36.04
2023-04-18T04:47:52.736Z,36.03
2023-04-18T04:48:22.738Z,36.07
2023-04-18T04:48:52.752Z,36.12
2023-04-18T04:49:22.750Z,36.15
2023-04-18T04:49:52.766Z,36.11
2023-04-18T04:50:22.771Z,36.11
2023-04-18T04:50:52.768Z,36.24
2023-04-18T04:51:22.771Z,36.21
2023-04-18T04:51:52.808Z,36.06
2023-04-18T04:52:22.815Z,35.89
2023-04-18T04:52:52.821Z,34.89
2023-04-18T04:53:22.819Z,34.96
2023-04-18T04:54:22.896Z,34.83
2023-04-18T04:54:52.914Z,33.99
2023-04-18T04:55:22.923Z,32.86
2023-04-18T04:55:52.920Z,33.46
2023-04-18T04:56:53.012Z,33.42
2023-04-18T04:57:23.019Z,33.71
2023-04-18T04:57:53.025Z,34.10
2023-04-18T04:58:23.042Z,34.01
2023-04-18T04:58:53.103Z,34.51
2023-04-18T04:59:23.081Z,33.56
2023-04-18T04:59:53.088Z,33.97
2023-04-18T05:00:23.096Z,34.25
2023-04-18T05:00:53.139Z,34.57
2023-04-18T05:01:23.179Z,34.44
2023-04-18T05:01:53.315Z,34.96
2023-04-18T05:02:23.472Z,35.34
2023-04-18T05:02:53.551Z,35.78
2023-04-18T05:03:23.524Z,35.22
2023-04-18T05:03:53.485Z,35.60
2023-04-18T05:04:23.571Z,36.07
2023-04-18T05:04:53.530Z,35.98
2023-04-18T05:05:23.518Z,36.43
2023-04-18T05:05:53.529Z,35.96
2023-04-18T05:06:23.537Z,35.74
2023-04-18T05:06:53.545Z,35.66
2023-04-18T05:07:23.640Z,35.69
2023-04-18T05:07:53.619Z,35.83
2023-04-18T05:08:53.719Z,35.98
2023-04-18T05:09:23.721Z,36.15
2023-04-18T05:09:53.720Z,36.20
2023-04-18T05:10:23.813Z,36.49
2023-04-18T05:10:53.884Z,36.53
2023-04-18T05:11:23.979Z,36.56
2023-04-18T05:11:54.066Z,36.51
2023-04-18T05:12:24.170Z,36.51
2023-04-18T05:12:54.250Z,36.66
2023-04-18T05:13:24.363Z,36.70
2023-04-18T05:13:54.449Z,36.79
2023-04-18T05:14:24.553Z,36.85
2023-04-18T05:14:54.537Z,36.89
2023-04-18T05:15:24.634Z,36.89
2023-04-18T05:15:54.711Z,36.91
2023-04-18T05:16:24.868Z,36.94
2023-04-18T05:16:54.888Z,36.99
2023-04-18T05:17:24.886Z,36.90
2023-04-18T05:17:54.924Z,36.89
2023-04-18T05:18:24.905Z,36.83
2023-04-18T05:18:54.993Z,36.85
2023-04-18T05:19:25.066Z,36.90
2023-04-18T05:19:55.152Z,36.89
2023-04-18T05:20:25.175Z,36.85
2023-04-18T05:20:55.174Z,36.88
2023-04-18T05:21:25.186Z,36.96
2023-04-18T05:21:55.202Z,36.95
2023-04-18T05:22:25.220Z,36.92
2023-04-18T05:22:55.260Z,36.97
2023-04-18T05:23:25.242Z,36.89
2023-04-18T05:24:25.339Z,36.95
2023-04-18T05:24:55.350Z,36.91
2023-04-18T05:25:25.352Z,36.94
2023-04-18T05:25:55.362Z,36.96
2023-04-18T05:26:25.379Z,36.97
2023-04-18T05:26:55.379Z,36.93
2023-04-18T05:27:25.418Z,37.07
2023-04-18T05:27:55.423Z,37.11
2023-04-18T05:28:25.420Z,37.15
2023-04-18T05:28:55.438Z,37.12
2023-04-18T05:29:25.449Z,36.97
2023-04-18T05:29:55.449Z,36.96
2023-04-18T05:30:25.491Z,36.92
2023-04-18T05:30:55.552Z,36.84
2023-04-18T05:31:25.628Z,36.73
2023-04-18T05:31:55.625Z,36.78
2023-04-18T05:32:25.708Z,36.72
2023-04-18T05:32:55.706Z,36.83
2023-04-18T05:33:25.715Z,36.87
2023-04-18T05:33:55.757Z,36.86
2023-04-18T05:34:25.750Z,36.73
2023-04-18T05:34:55.758Z,36.78
2023-04-18T05:35:25.776Z,36.76
2023-04-18T05:35:55.782Z,36.76
2023-04-18T05:36:25.777Z,36.82
2023-04-18T05:36:55.786Z,36.75
2023-04-18T05:37:25.809Z,36.75
2023-04-18T05:37:55.806Z,36.74
2023-04-18T05:38:25.886Z,36.76
2023-04-18T05:38:55.880Z,36.68
2023-04-18T05:39:25.889Z,36.58
2023-04-18T05:39:55.908Z,36.71
2023-04-18T05:40:25.900Z,36.68
2023-04-18T05:40:56.048Z,36.53
2023-04-18T05:41:25.935Z,36.63
2023-04-18T05:41:55.936Z,36.68
2023-04-18T05:42:25.966Z,36.66
2023-04-18T05:42:55.987Z,36.70
2023-04-18T05:43:25.972Z,36.58
2023-04-18T05:44:04.957Z,36.58
2023-04-18T05:44:26.078Z,36.53
2023-04-18T05:44:56.093Z,36.58
2023-04-18T05:45:26.098Z,36.36
2023-04-18T05:45:57.748Z,36.37
2023-04-18T05:46:26.205Z,36.30
2023-04-18T05:46:56.212Z,36.41
2023-04-18T05:47:26.281Z,36.36
2023-04-18T05:47:56.296Z,36.37
2023-04-18T05:48:26.339Z,36.34
2023-04-18T05:48:56.327Z,36.32
2023-04-18T05:49:26.333Z,36.22
2023-04-18T05:49:56.344Z,36.33
2023-04-18T05:50:26.354Z,36.22
2023-04-18T05:50:56.380Z,36.22
2023-04-18T05:51:26.370Z,36.26
2023-04-18T05:51:56.383Z,36.20
2023-04-18T05:52:26.408Z,36.19
2023-04-18T05:52:56.410Z,36.16
2023-04-18T05:53:26.419Z,36.21
2023-04-18T05:53:56.457Z,36.11
2023-04-18T05:54:26.453Z,36.22
2023-04-18T05:54:56.480Z,36.19
2023-04-18T05:55:26.481Z,36.21
2023-04-18T05:55:56.485Z,36.13
2023-04-18T05:56:26.490Z,36.12
2023-04-18T05:56:56.505Z,36.13
2023-04-18T05:57:26.529Z,36.10
2023-04-18T05:57:56.558Z,36.08
2023-04-18T05:58:26.548Z,36.06
2023-04-18T05:58:56.553Z,36.05
2023-04-18T05:59:26.565Z,35.97
2023-04-18T05:59:56.557Z,36.06
2023-04-18T06:00:26.567Z,36.01
2023-04-18T06:00:56.586Z,36.03
2023-04-18T06:01:26.586Z,36.16
2023-04-18T06:01:56.618Z,36.12
2023-04-18T06:02:26.764Z,35.98
2023-04-18T06:02:56.913Z,36.01
2023-04-18T06:03:26.942Z,36.00
2023-04-18T06:03:56.977Z,36.04
2023-04-18T06:04:26.809Z,36.07
2023-04-18T06:04:57.126Z,36.05
2023-04-18T06:05:27.161Z,35.97
2023-04-18T06:05:57.045Z,35.98
2023-04-18T06:06:26.976Z,35.95
2023-04-18T06:06:56.983Z,35.89
2023-04-18T06:07:27.009Z,35.96
2023-04-18T06:07:57.020Z,35.95
2023-04-18T06:08:27.043Z,35.99
2023-04-18T06:08:57.041Z,36.06
2023-04-18T06:09:27.052Z,36.01
2023-04-18T06:09:57.081Z,35.98
2023-04-18T06:10:27.165Z,35.96
2023-04-18T06:10:57.253Z,35.96
2023-04-18T06:11:27.333Z,35.93
2023-04-18T06:11:57.437Z,35.94
2023-04-18T06:12:27.536Z,35.93
2023-04-18T06:12:57.629Z,35.89
2023-04-18T06:13:27.715Z,35.94
2023-04-18T06:13:57.800Z,35.90
2023-04-18T06:14:27.900Z,35.94
2023-04-18T06:14:57.977Z,35.92
2023-04-18T06:15:28.068Z,36.03
2023-04-18T06:15:58.177Z,35.93
2023-04-18T06:16:28.285Z,35.96
2023-04-18T06:16:58.217Z,35.92
2023-04-18T06:17:28.327Z,35.92
2023-04-18T06:17:58.331Z,35.88
2023-04-18T06:18:28.348Z,35.88
2023-04-18T06:19:01.107Z,35.90
2023-04-18T06:19:28.543Z,35.82
2023-04-18T06:19:58.626Z,35.77
2023-04-18T06:20:28.640Z,35.83
2023-04-18T06:20:58.676Z,35.70
2023-04-18T06:21:28.692Z,35.77
2023-04-18T06:21:58.710Z,35.80
2023-04-18T06:22:28.734Z,35.78
2023-04-18T06:22:58.738Z,35.81
2023-04-18T06:23:28.742Z,35.87
2023-04-18T06:23:58.763Z,35.78
2023-04-18T06:24:30.178Z,35.78
2023-04-18T06:24:58.888Z,35.85
2023-04-18T06:25:28.872Z,35.85
2023-04-18T06:25:58.894Z,35.80
2023-04-18T06:26:28.901Z,35.81
2023-04-18T06:26:58.921Z,35.96
2023-04-18T06:27:31.431Z,35.88
2023-04-18T06:27:58.920Z,35.96
2023-04-18T06:28:28.938Z,35.83
2023-04-18T06:28:58.950Z,35.80
2023-04-18T06:29:28.958Z,35.80
2023-04-18T06:29:59.059Z,35.80
2023-04-18T06:30:28.980Z,35.78
2023-04-18T06:30:58.987Z,35.83
2023-04-18T06:31:28.998Z,35.82
2023-04-18T06:31:59.117Z,35.73
2023-04-18T06:32:29.085Z,35.74
2023-04-18T06:32:59.167Z,35.67
2023-04-18T06:33:29.166Z,35.67
2023-04-18T06:33:59.175Z,35.66
2023-04-18T06:34:29.183Z,35.66
2023-04-18T06:34:59.227Z,35.71
2023-04-18T06:35:29.210Z,35.62
2023-04-18T06:35:59.224Z,35.66
2023-04-18T06:36:29.231Z,35.57
2023-04-18T06:36:59.288Z,35.40